Meloi — 3FOD — position and weather

sailwx.info

Track history (hours):
 
Tides and Currents Weather Stations Pressure Air Temp Water Temp Dewpoint Dewpoint Depression Visibility Wind Speed Wind Dir Waves Ship Positions

Meloi

Last reported at 2016-Jul-20 22:33 UTC. Time now 2016-Aug-29 21:42 UTC.
Position S 34°15' W 058°04'.
Warning: this ship's position is 39 days out of date.

Length 180 m; draft 5.8 m.

Type: Cargo ship. MMSI: 351132000.

Date/timePositionNaut miles runAvg speedWind from/ knotsBaromVisibWave heightAir tempDewpointWater temp
2016-Jul-20 22:33S 34°15' W 058°04'1111.5
2016-Jul-20 21:33S 34°26' W 057°57'1211.8
2016-Jul-20 20:33S 34°37' W 057°58'1110.5
2016-Jul-20 19:33S 34°45' W 057°48'1 1.1
2016-Jul-20 18:33S 34°46' W 057°48'6 6.5
2016-Jul-20 17:34S 34°44' W 057°40'  
2016-Jul-16 04:19S 26°20' W 043°17'1012.9
2016-Jul-16 03:33S 26°13' W 043°09'1313.2
2016-Jul-16 02:33S 26°03' W 042°59'3112.6
2016-Jul-16 00:05S 25°41' W 042°35'712.4
2016-Jul-15 23:33S 25°36' W 042°30'1212.1
2016-Jul-15 22:33S 25°27' W 042°21'1212.3
2016-Jul-15 21:32S 25°18' W 042°11'1712.3
2016-Jul-15 20:10S 25°06' W 041°59'4612.6
2016-Jul-15 16:30S 24°31' W 041°25'  
Track history (hours):
 
Tides and Currents Weather Stations Pressure Air Temp Water Temp Dewpoint Dewpoint Depression Visibility Wind Speed Wind Dir Waves Ship Positions

Meloi

Last reported at 2016-Jul-20 22:33 UTC. Time now 2016-Aug-29 21:42 UTC.
Position S 34°15' W 058°04'.
Warning: this ship's position is 39 days out of date.

Length 180 m; draft 5.8 m.

Type: Cargo ship. MMSI: 351132000.

Date/timePositionNaut miles runAvg speedWind from/ knotsBaromVisibWave heightAir tempDewpointWater temp
2016-Jul-20 22:33S 34°15' W 058°04'1111.5
2016-Jul-20 21:33S 34°26' W 057°57'1211.8
2016-Jul-20 20:33S 34°37' W 057°58'1110.5
2016-Jul-20 19:33S 34°45' W 057°48'1 1.1
2016-Jul-20 18:33S 34°46' W 057°48'6 6.5
2016-Jul-20 17:34S 34°44' W 057°40'  
2016-Jul-16 04:19S 26°20' W 043°17'1012.9
2016-Jul-16 03:33S 26°13' W 043°09'1313.2
2016-Jul-16 02:33S 26°03' W 042°59'3112.6
2016-Jul-16 00:05S 25°41' W 042°35'712.4
2016-Jul-15 23:33S 25°36' W 042°30'1212.1
2016-Jul-15 22:33S 25°27' W 042°21'1212.3
2016-Jul-15 21:32S 25°18' W 042°11'1712.3
2016-Jul-15 20:10S 25°06' W 041°59'4612.6
2016-Jul-15 16:30S 24°31' W 041°25'  

Dump ship's entire track history